createdAt,value
2018-05-16T00:00:35.143Z,12.64
2018-05-16T00:01:35.105Z,12.65
2018-05-16T00:02:35.090Z,12.65
2018-05-16T00:03:35.000Z,12.64
2018-05-16T00:04:34.963Z,12.65
2018-05-16T00:05:34.906Z,12.70
2018-05-16T00:06:34.855Z,12.65
2018-05-16T00:07:34.852Z,12.62
2018-05-16T00:08:34.763Z,12.64
2018-05-16T00:09:34.723Z,12.60
2018-05-16T00:10:34.664Z,12.61
2018-05-16T00:11:34.633Z,12.50
2018-05-16T00:12:34.607Z,12.49
2018-05-16T00:13:34.526Z,12.45
2018-05-16T00:14:34.519Z,12.49
2018-05-16T00:15:34.428Z,12.55
2018-05-16T00:16:34.394Z,12.50
2018-05-16T00:17:34.334Z,12.46
2018-05-16T00:18:34.283Z,12.64
2018-05-16T00:19:34.279Z,12.53
2018-05-16T00:20:34.189Z,12.57
2018-05-16T00:21:34.143Z,12.64
2018-05-16T00:22:34.092Z,12.53
2018-05-16T00:23:34.076Z,12.50
2018-05-16T00:24:33.998Z,12.58
2018-05-16T00:25:33.954Z,12.58
2018-05-16T00:26:33.908Z,12.49
2018-05-16T00:27:33.856Z,12.60
2018-05-16T00:28:33.845Z,12.50
2018-05-16T00:29:33.768Z,12.54
2018-05-16T00:30:33.710Z,12.45
2018-05-16T00:31:34.151Z,12.55
2018-05-16T00:32:33.618Z,12.45
2018-05-16T00:33:33.567Z,12.47
2018-05-16T00:34:33.524Z,12.49
2018-05-16T00:35:33.473Z,12.49
2018-05-16T00:36:33.465Z,12.55
2018-05-16T00:37:33.376Z,12.57
2018-05-16T00:38:33.332Z,12.50
2018-05-16T00:39:33.288Z,12.47
2018-05-16T00:40:33.236Z,12.47
2018-05-16T00:41:33.225Z,12.49
2018-05-16T00:42:33.176Z,12.50
2018-05-16T00:43:33.092Z,12.49
2018-05-16T00:44:33.043Z,12.43
2018-05-16T00:45:33.038Z,12.45
2018-05-16T00:46:32.984Z,12.45
2018-05-16T00:47:32.902Z,12.47
2018-05-16T00:48:32.851Z,12.39
2018-05-16T00:49:32.807Z,12.45
2018-05-16T00:50:32.807Z,12.45
2018-05-16T00:51:32.713Z,12.37
2018-05-16T00:52:32.670Z,12.49
2018-05-16T00:53:32.630Z,12.45
2018-05-16T00:54:32.566Z,12.45
2018-05-16T00:55:32.557Z,12.43
2018-05-16T00:56:32.470Z,12.37
2018-05-16T00:57:32.423Z,12.37
2018-05-16T00:58:32.406Z,12.35
2018-05-16T00:59:32.328Z,12.37
2018-05-16T01:00:32.282Z,12.35
2018-05-16T01:01:32.231Z,12.37
2018-05-16T01:02:32.215Z,12.35
2018-05-16T01:03:32.141Z,12.36
2018-05-16T01:04:32.088Z,12.31
2018-05-16T01:05:32.084Z,12.27
2018-05-16T01:06:32.037Z,12.36
2018-05-16T01:07:31.962Z,12.32
2018-05-16T01:08:31.901Z,12.29
2018-05-16T01:09:31.851Z,12.32
2018-05-16T01:10:31.817Z,12.22
2018-05-16T01:11:31.794Z,12.25
2018-05-16T01:12:31.740Z,12.28
2018-05-16T01:13:31.667Z,12.25
2018-05-16T01:14:31.613Z,12.24
2018-05-16T01:15:31.561Z,12.25
2018-05-16T01:16:31.558Z,12.18
2018-05-16T01:17:31.476Z,12.21
2018-05-16T01:18:31.421Z,12.25
2018-05-16T01:19:31.372Z,12.25
2018-05-16T01:20:31.328Z,12.29
2018-05-16T01:21:31.308Z,12.28
2018-05-16T01:22:31.229Z,12.29
2018-05-16T01:23:31.187Z,12.21
2018-05-16T01:24:31.133Z,12.29
2018-05-16T01:25:31.116Z,12.31
2018-05-16T01:26:31.036Z,12.28
2018-05-16T01:27:30.988Z,12.25
2018-05-16T01:28:30.974Z,12.25
2018-05-16T01:29:30.890Z,12.27
2018-05-16T01:30:30.849Z,12.20
2018-05-16T01:31:30.799Z,12.25
2018-05-16T01:32:30.749Z,12.18
2018-05-16T01:33:30.772Z,12.18
2018-05-16T01:34:30.652Z,12.18
2018-05-16T01:35:30.607Z,12.21
2018-05-16T01:36:30.559Z,12.15
2018-05-16T01:37:30.520Z,12.17
2018-05-16T01:38:30.495Z,12.18
2018-05-16T01:39:30.445Z,12.20
2018-05-16T01:40:30.372Z,12.15
2018-05-16T01:41:30.325Z,12.10
2018-05-16T01:42:30.271Z,12.10
2018-05-16T01:43:30.254Z,12.09
2018-05-16T01:44:30.221Z,12.04
2018-05-16T01:45:30.129Z,12.04
2018-05-16T01:46:30.079Z,12.15
2018-05-16T01:47:30.034Z,12.12
2018-05-16T01:48:29.983Z,12.03
2018-05-16T01:49:29.972Z,12.10
2018-05-16T01:50:29.888Z,12.13
2018-05-16T01:51:29.841Z,12.12
2018-05-16T01:52:29.791Z,12.09
2018-05-16T01:53:29.781Z,12.18
2018-05-16T01:54:29.710Z,12.10
2018-05-16T01:55:29.652Z,12.18
2018-05-16T01:56:29.598Z,12.15
2018-05-16T01:57:29.588Z,12.15
2018-05-16T01:58:29.516Z,12.13
2018-05-16T01:59:29.456Z,12.04
2018-05-16T02:00:29.408Z,12.02
2018-05-16T02:01:29.395Z,12.04
2018-05-16T02:02:29.312Z,12.09
2018-05-16T02:03:29.264Z,12.04
2018-05-16T02:04:29.221Z,12.10
2018-05-16T02:05:29.166Z,12.10
2018-05-16T02:06:29.151Z,12.09
2018-05-16T02:07:29.070Z,12.07
2018-05-16T02:08:29.023Z,12.15
2018-05-16T02:09:28.978Z,12.20
2018-05-16T02:10:28.953Z,12.10
2018-05-16T02:11:28.879Z,12.15
2018-05-16T02:12:28.866Z,12.12
2018-05-16T02:13:28.784Z,12.17
2018-05-16T02:14:28.771Z,12.09
2018-05-16T02:15:28.736Z,12.20
2018-05-16T02:16:28.641Z,12.18
2018-05-16T02:17:28.597Z,12.17
2018-05-16T02:18:28.544Z,12.24
2018-05-16T02:19:28.532Z,12.13
2018-05-16T02:20:28.449Z,12.18
2018-05-16T02:21:28.453Z,12.20
2018-05-16T02:22:28.353Z,12.21
2018-05-16T02:23:28.305Z,12.13
2018-05-16T02:24:28.306Z,12.13
2018-05-16T02:25:28.225Z,12.09
2018-05-16T02:26:28.161Z,12.07
2018-05-16T02:27:28.117Z,12.13
2018-05-16T02:28:28.067Z,12.13
2018-05-16T02:29:28.069Z,12.10
2018-05-16T02:30:27.972Z,12.12
2018-05-16T02:31:27.923Z,12.10
2018-05-16T02:32:27.881Z,12.15
2018-05-16T02:33:27.825Z,12.12
2018-05-16T02:34:27.821Z,12.15
2018-05-16T02:35:27.730Z,12.18
2018-05-16T02:36:27.686Z,12.15
2018-05-16T02:37:27.733Z,12.12
2018-05-16T02:38:27.584Z,12.09
2018-05-16T02:39:27.569Z,12.15
2018-05-16T02:40:27.510Z,12.15
2018-05-16T02:41:27.444Z,12.13
2018-05-16T02:42:27.397Z,12.17
2018-05-16T02:43:27.348Z,12.18
2018-05-16T02:44:27.349Z,12.09
2018-05-16T02:45:27.251Z,12.13
2018-05-16T02:46:27.201Z,12.17
2018-05-16T02:47:27.270Z,12.18
2018-05-16T02:48:27.106Z,12.12
2018-05-16T02:49:27.096Z,12.13
2018-05-16T02:50:27.042Z,12.18
2018-05-16T02:51:27.003Z,12.09
2018-05-16T02:52:26.914Z,12.12
2018-05-16T02:53:26.863Z,12.09
2018-05-16T02:54:26.909Z,12.12
2018-05-16T02:55:26.770Z,12.18
2018-05-16T02:56:26.755Z,12.12
2018-05-16T02:57:26.678Z,12.10
2018-05-16T02:58:26.665Z,12.12
2018-05-16T02:59:26.587Z,12.12
2018-05-16T03:00:26.533Z,12.10
2018-05-16T03:01:26.491Z,12.20
2018-05-16T03:02:26.434Z,12.09
2018-05-16T03:03:26.438Z,12.12
2018-05-16T03:04:26.345Z,12.13
2018-05-16T03:05:26.289Z,12.13
2018-05-16T03:06:26.246Z,12.20
2018-05-16T03:07:26.195Z,12.20
2018-05-16T03:08:26.194Z,12.20
2018-05-16T03:09:26.098Z,12.20
2018-05-16T03:10:26.049Z,12.12
2018-05-16T03:11:26.010Z,12.20
2018-05-16T03:12:25.957Z,12.15
2018-05-16T03:13:25.941Z,12.18
2018-05-16T03:14:25.894Z,12.17
2018-05-16T03:15:25.809Z,12.17
2018-05-16T03:16:25.794Z,12.12
2018-05-16T03:17:25.713Z,12.12
2018-05-16T03:18:25.668Z,12.18
2018-05-16T03:19:25.631Z,12.12
2018-05-16T03:20:25.571Z,12.10
2018-05-16T03:21:25.557Z,12.12
2018-05-16T03:22:25.477Z,12.12
2018-05-16T03:23:25.427Z,12.13
2018-05-16T03:24:25.376Z,12.15
2018-05-16T03:25:25.333Z,12.07
2018-05-16T03:26:25.324Z,12.09
2018-05-16T03:27:25.238Z,12.07
2018-05-16T03:28:25.191Z,12.15
2018-05-16T03:29:25.141Z,12.04
2018-05-16T03:30:25.091Z,12.12
2018-05-16T03:31:25.082Z,12.04
2018-05-16T03:32:24.996Z,12.06
2018-05-16T03:33:24.946Z,12.02
2018-05-16T03:34:24.899Z,12.03
2018-05-16T03:35:24.850Z,12.02
2018-05-16T03:36:24.838Z,12.09
2018-05-16T03:37:24.754Z,12.03
2018-05-16T03:38:24.737Z,12.03
2018-05-16T03:39:24.659Z,12.04
2018-05-16T03:40:24.647Z,12.02
2018-05-16T03:41:24.563Z,12.06
2018-05-16T03:42:24.517Z,12.12
2018-05-16T03:43:24.507Z,12.02
2018-05-16T03:44:24.422Z,12.12
2018-05-16T03:45:24.371Z,12.06
2018-05-16T03:46:24.321Z,12.03
2018-05-16T03:47:24.310Z,12.03
2018-05-16T03:48:24.231Z,12.06
2018-05-16T03:49:24.218Z,12.02
2018-05-16T03:50:24.131Z,12.02
2018-05-16T03:51:24.090Z,12.12
2018-05-16T03:52:24.035Z,12.09
2018-05-16T03:53:23.985Z,11.95
2018-05-16T03:54:23.977Z,12.04
2018-05-16T03:55:23.892Z,12.00
2018-05-16T03:56:23.844Z,12.03
2018-05-16T03:57:23.829Z,11.91
2018-05-16T03:58:23.750Z,11.90
2018-05-16T03:59:23.701Z,11.88
2018-05-16T04:00:23.679Z,11.94
2018-05-16T04:01:23.647Z,11.91
2018-05-16T04:02:23.577Z,11.91
2018-05-16T04:03:23.506Z,11.90
2018-05-16T04:04:23.460Z,11.94
2018-05-16T04:05:23.409Z,12.03
2018-05-16T04:06:23.399Z,12.02
2018-05-16T04:07:23.313Z,12.00
2018-05-16T04:08:23.270Z,12.06
2018-05-16T04:09:23.215Z,12.12
2018-05-16T04:10:23.169Z,11.99
2018-05-16T04:11:23.162Z,12.03
2018-05-16T04:12:23.073Z,12.13
2018-05-16T04:13:23.027Z,12.13
2018-05-16T04:14:22.982Z,12.12
2018-05-16T04:15:22.925Z,12.00
2018-05-16T04:16:22.918Z,12.13
2018-05-16T04:17:22.866Z,12.10
2018-05-16T04:18:22.784Z,12.15
2018-05-16T04:19:22.739Z,12.21
2018-05-16T04:20:22.688Z,12.20
2018-05-16T04:21:22.652Z,12.21
2018-05-16T04:22:22.627Z,12.17
2018-05-16T04:23:22.544Z,12.18
2018-05-16T04:24:22.496Z,12.24
2018-05-16T04:25:22.466Z,12.24
2018-05-16T04:26:22.452Z,12.20
2018-05-16T04:27:22.354Z,12.25
2018-05-16T04:28:22.304Z,12.25
2018-05-16T04:29:22.262Z,12.22
2018-05-16T04:30:22.206Z,12.20
2018-05-16T04:31:22.201Z,12.21
2018-05-16T04:32:22.112Z,12.27
2018-05-16T04:33:22.097Z,12.28
2018-05-16T04:34:22.023Z,12.29
2018-05-16T04:35:21.970Z,12.27
2018-05-16T04:36:21.925Z,12.29
2018-05-16T04:37:21.904Z,12.22
2018-05-16T04:38:21.822Z,12.17
2018-05-16T04:39:21.776Z,12.25
2018-05-16T04:40:21.727Z,12.25
2018-05-16T04:41:21.685Z,12.22
2018-05-16T04:42:21.668Z,12.24
2018-05-16T04:43:21.620Z,12.28
2018-05-16T04:44:21.544Z,12.28
2018-05-16T04:45:21.488Z,12.21
2018-05-16T04:46:21.483Z,12.28
2018-05-16T04:47:21.390Z,12.25
2018-05-16T04:48:21.343Z,12.28
2018-05-16T04:49:21.298Z,12.25
2018-05-16T04:50:21.247Z,12.24
2018-05-16T04:51:21.237Z,12.27
2018-05-16T04:52:21.157Z,12.27
2018-05-16T04:53:21.150Z,12.28
2018-05-16T04:54:21.100Z,12.28
2018-05-16T04:55:21.009Z,12.35
2018-05-16T04:56:20.965Z,12.21
2018-05-16T04:57:20.912Z,12.24
2018-05-16T04:58:20.872Z,12.28
2018-05-16T04:59:20.850Z,12.22
2018-05-16T05:00:20.771Z,12.20
2018-05-16T05:01:20.721Z,12.20
2018-05-16T05:02:20.713Z,12.17
2018-05-16T05:03:20.622Z,12.20
2018-05-16T05:04:20.575Z,12.21
2018-05-16T05:05:20.528Z,12.17
2018-05-16T05:06:20.487Z,12.13
2018-05-16T05:07:20.472Z,12.17
2018-05-16T05:08:20.399Z,12.20
2018-05-16T05:09:20.337Z,12.28
2018-05-16T05:10:20.286Z,12.25
2018-05-16T05:11:20.240Z,12.18
2018-05-16T05:12:20.234Z,12.22
2018-05-16T05:13:20.147Z,12.22
2018-05-16T05:14:20.099Z,12.20
2018-05-16T05:15:20.048Z,12.24
2018-05-16T05:16:20.005Z,12.20
2018-05-16T05:17:19.988Z,12.22
2018-05-16T05:18:20.010Z,12.24
2018-05-16T05:19:19.856Z,12.25
2018-05-16T05:20:19.806Z,12.18
2018-05-16T05:21:19.794Z,12.17
2018-05-16T05:22:19.752Z,12.21
2018-05-16T05:23:19.673Z,12.20
2018-05-16T05:24:19.620Z,12.18
2018-05-16T05:25:19.573Z,12.12
2018-05-16T05:26:19.523Z,12.22
2018-05-16T05:27:19.503Z,12.20
2018-05-16T05:28:19.425Z,12.18
2018-05-16T05:29:19.379Z,12.22
2018-05-16T05:30:19.393Z,12.20
2018-05-16T05:31:19.282Z,12.21
2018-05-16T05:32:19.264Z,12.24
2018-05-16T05:33:19.230Z,12.24
2018-05-16T05:34:19.136Z,12.28
2018-05-16T05:35:19.090Z,12.17
2018-05-16T05:36:19.042Z,12.24
2018-05-16T05:37:18.995Z,12.32
2018-05-16T05:38:18.995Z,12.31
2018-05-16T05:39:18.895Z,12.31
2018-05-16T05:40:18.849Z,12.25
2018-05-16T05:41:18.801Z,12.28
2018-05-16T05:42:18.755Z,12.39
2018-05-16T05:43:18.750Z,12.36
2018-05-16T05:44:18.704Z,12.36
2018-05-16T05:45:18.607Z,12.42
2018-05-16T05:46:18.562Z,12.39
2018-05-16T05:47:18.513Z,12.35
2018-05-16T05:48:18.469Z,12.45
2018-05-16T05:49:18.521Z,12.40
2018-05-16T05:50:18.369Z,12.58
2018-05-16T05:51:18.355Z,12.50
2018-05-16T05:52:18.273Z,12.55
2018-05-16T05:53:18.230Z,12.60
2018-05-16T05:54:18.178Z,12.64
2018-05-16T05:55:18.162Z,12.62
2018-05-16T05:56:18.082Z,12.65
2018-05-16T05:57:18.065Z,12.60
2018-05-16T05:58:17.985Z,12.65
2018-05-16T05:59:17.938Z,12.76
2018-05-16T06:00:17.924Z,12.78
2018-05-16T06:01:17.842Z,12.82
2018-05-16T06:02:17.793Z,12.83
2018-05-16T06:03:17.754Z,12.83
2018-05-16T06:04:17.697Z,12.95
2018-05-16T06:05:17.766Z,12.87
2018-05-16T06:06:17.606Z,13.03
2018-05-16T06:07:17.553Z,12.94
2018-05-16T06:08:17.512Z,12.97
2018-05-16T06:09:17.462Z,13.08
2018-05-16T06:10:17.443Z,13.11
2018-05-16T06:11:17.363Z,13.19
2018-05-16T06:12:17.318Z,13.25
2018-05-16T06:13:17.267Z,13.22
2018-05-16T06:14:17.220Z,13.31
2018-05-16T06:15:17.210Z,13.38
2018-05-16T06:16:17.126Z,13.44
2018-05-16T06:17:17.102Z,13.47
2018-05-16T06:18:17.040Z,13.62
2018-05-16T06:19:16.986Z,13.57
2018-05-16T06:20:16.967Z,13.62
2018-05-16T06:21:16.895Z,13.77
2018-05-16T06:22:16.840Z,13.75
2018-05-16T06:23:16.828Z,13.85
2018-05-16T06:24:16.747Z,13.87
2018-05-16T06:25:16.710Z,13.77
2018-05-16T06:26:16.652Z,13.93
2018-05-16T06:27:16.768Z,13.99
2018-05-16T06:28:16.618Z,13.95
2018-05-16T06:29:16.512Z,13.95
2018-05-16T06:30:16.464Z,14.03
2018-05-16T06:31:16.416Z,14.04
2018-05-16T06:32:16.373Z,14.05
2018-05-16T06:33:16.363Z,14.07
2018-05-16T06:34:16.273Z,14.08
2018-05-16T06:35:16.228Z,14.07
2018-05-16T06:36:16.188Z,14.04
2018-05-16T06:37:16.142Z,14.08
2018-05-16T06:38:16.120Z,14.18
2018-05-16T06:39:16.113Z,14.15
2018-05-16T06:40:15.994Z,14.15
2018-05-16T06:41:15.952Z,14.10
2018-05-16T06:42:15.931Z,14.11
2018-05-16T06:43:15.853Z,14.08
2018-05-16T06:44:15.811Z,14.08
2018-05-16T06:45:15.817Z,14.15
2018-05-16T06:46:15.736Z,14.17
2018-05-16T06:47:15.667Z,14.25
2018-05-16T06:48:15.617Z,14.23
2018-05-16T06:49:15.647Z,14.22
2018-05-16T06:50:15.589Z,14.26
2018-05-16T06:51:15.482Z,14.22
2018-05-16T06:52:15.431Z,14.26
2018-05-16T06:53:15.388Z,14.25
2018-05-16T06:54:15.381Z,14.25
2018-05-16T06:55:15.293Z,14.22
2018-05-16T06:56:15.244Z,14.20
2018-05-16T06:57:15.199Z,14.22
2018-05-16T06:58:15.150Z,14.18
2018-05-16T06:59:15.136Z,14.26
2018-05-16T07:00:15.099Z,14.26
2018-05-16T07:01:15.018Z,14.32
2018-05-16T07:02:14.970Z,14.30
2018-05-16T07:03:14.923Z,14.35
2018-05-16T07:04:14.874Z,14.33
2018-05-16T07:05:14.858Z,14.28
2018-05-16T07:06:14.789Z,14.41
2018-05-16T07:07:14.747Z,14.41
2018-05-16T07:08:14.684Z,14.35
2018-05-16T07:09:14.645Z,14.36
2018-05-16T07:10:14.624Z,14.51
2018-05-16T07:11:14.548Z,14.53
2018-05-16T07:12:14.497Z,14.48
2018-05-16T07:13:14.485Z,14.62
2018-05-16T07:14:14.403Z,14.70
2018-05-16T07:15:14.392Z,14.78
2018-05-16T07:16:14.316Z,14.81
2018-05-16T07:17:14.276Z,14.88
2018-05-16T07:18:14.253Z,14.92
2018-05-16T07:19:14.170Z,15.03
2018-05-16T07:20:14.128Z,15.15
2018-05-16T07:21:14.080Z,15.29
2018-05-16T07:22:14.032Z,15.33
2018-05-16T07:23:14.019Z,15.46
2018-05-16T07:24:13.982Z,15.49
2018-05-16T07:25:13.895Z,15.52
2018-05-16T07:26:13.849Z,15.59
2018-05-16T07:27:13.801Z,15.61
2018-05-16T07:28:13.800Z,15.65
2018-05-16T07:29:13.742Z,15.72
2018-05-16T07:30:13.664Z,15.64
2018-05-16T07:31:13.660Z,15.84
2018-05-16T07:32:13.573Z,15.82
2018-05-16T07:33:13.526Z,15.82
2018-05-16T07:34:13.479Z,15.92
2018-05-16T07:35:13.437Z,15.94
2018-05-16T07:36:13.421Z,16.05
2018-05-16T07:37:13.344Z,16.13
2018-05-16T07:38:13.300Z,16.08
2018-05-16T07:39:13.285Z,16.23
2018-05-16T07:40:13.343Z,16.20
2018-05-16T07:41:13.263Z,16.35
2018-05-16T07:42:13.120Z,16.32
2018-05-16T07:43:13.071Z,16.29
2018-05-16T07:44:13.028Z,16.39
2018-05-16T07:45:13.014Z,16.33
2018-05-16T07:46:12.969Z,16.31
2018-05-16T07:47:13.070Z,16.23
2018-05-16T07:48:12.846Z,16.28
2018-05-16T07:49:12.804Z,16.20
2018-05-16T07:50:12.766Z,16.15
2018-05-16T07:51:12.823Z,16.26
2018-05-16T07:52:12.699Z,16.28
2018-05-16T07:53:12.620Z,16.26
2018-05-16T07:54:12.680Z,16.35
2018-05-16T07:55:12.526Z,16.24
2018-05-16T07:56:12.483Z,16.21
2018-05-16T07:57:12.439Z,16.26
2018-05-16T07:58:12.430Z,16.28
2018-05-16T07:59:12.350Z,16.35
2018-05-16T08:00:12.345Z,16.33
2018-05-16T08:01:12.259Z,16.33
2018-05-16T08:02:12.217Z,16.33
2018-05-16T08:03:12.271Z,16.38
2018-05-16T08:04:12.135Z,16.51
2018-05-16T08:05:12.127Z,16.47
2018-05-16T08:06:12.034Z,16.56
2018-05-16T08:07:11.993Z,16.57
2018-05-16T08:08:11.943Z,16.78
2018-05-16T08:09:11.900Z,16.81
2018-05-16T08:10:11.897Z,16.86
2018-05-16T08:11:11.807Z,16.86
2018-05-16T08:12:11.769Z,17.02
2018-05-16T08:13:11.721Z,17.06
2018-05-16T08:14:11.688Z,17.15
2018-05-16T08:15:11.676Z,17.14
2018-05-16T08:16:11.592Z,17.20
2018-05-16T08:17:11.541Z,17.38
2018-05-16T08:18:11.496Z,17.34
2018-05-16T08:19:11.456Z,17.36
2018-05-16T08:20:11.439Z,17.38
2018-05-16T08:21:11.400Z,17.34
2018-05-16T08:22:11.317Z,17.46
2018-05-16T08:23:11.277Z,17.52
2018-05-16T08:24:11.260Z,17.44
2018-05-16T08:25:11.185Z,17.54
2018-05-16T08:26:11.139Z,17.51
2018-05-16T08:27:11.097Z,17.39
2018-05-16T08:28:11.101Z,17.39
2018-05-16T08:29:11.007Z,17.22
2018-05-16T08:30:10.972Z,17.20
2018-05-16T08:31:10.958Z,16.94
2018-05-16T08:32:10.877Z,17.04
2018-05-16T08:33:10.866Z,17.11
2018-05-16T08:34:10.787Z,17.15
2018-05-16T08:35:10.742Z,17.30
2018-05-16T08:36:10.697Z,17.22
2018-05-16T08:37:10.653Z,17.26
2018-05-16T08:38:10.643Z,17.16
2018-05-16T08:39:10.563Z,17.45
2018-05-16T08:40:10.559Z,17.57
2018-05-16T08:41:10.473Z,17.72
2018-05-16T08:42:10.430Z,17.76
2018-05-16T08:43:10.383Z,17.72
2018-05-16T08:44:10.375Z,17.74
2018-05-16T08:45:10.339Z,17.79
2018-05-16T08:46:10.254Z,17.67
2018-05-16T08:47:10.214Z,17.76
2018-05-16T08:48:10.163Z,17.78
2018-05-16T08:49:10.121Z,17.63
2018-05-16T08:50:10.115Z,17.54
2018-05-16T08:51:10.031Z,17.44
2018-05-16T08:52:09.988Z,17.44
2018-05-16T08:53:09.945Z,17.52
2018-05-16T08:54:09.900Z,17.54
2018-05-16T08:55:09.893Z,17.49
2018-05-16T08:56:09.819Z,17.57
2018-05-16T08:57:09.777Z,17.44
2018-05-16T08:58:09.721Z,17.48
2018-05-16T08:59:09.678Z,17.48
2018-05-16T09:00:09.671Z,17.49
2018-05-16T09:01:09.684Z,17.56
2018-05-16T09:02:09.545Z,17.52
2018-05-16T09:03:09.516Z,17.51
2018-05-16T09:04:09.493Z,17.52
2018-05-16T09:05:09.450Z,17.44
2018-05-16T09:06:09.368Z,17.49
2018-05-16T09:07:09.329Z,17.48
2018-05-16T09:08:09.279Z,17.54
2018-05-16T09:09:09.237Z,17.80
2018-05-16T09:10:09.229Z,17.85
2018-05-16T09:11:09.162Z,17.90
2018-05-16T09:12:09.106Z,17.89
2018-05-16T09:13:09.064Z,17.78
2018-05-16T09:14:09.022Z,17.70
2018-05-16T09:15:09.012Z,17.59
2018-05-16T09:16:08.928Z,17.48
2018-05-16T09:17:08.974Z,17.45
2018-05-16T09:18:08.840Z,17.52
2018-05-16T09:19:08.807Z,17.52
2018-05-16T09:20:08.802Z,17.78
2018-05-16T09:21:08.719Z,17.86
2018-05-16T09:22:08.668Z,18.10
2018-05-16T09:23:08.628Z,18.29
2018-05-16T09:24:08.580Z,18.47
2018-05-16T09:25:08.654Z,18.71
2018-05-16T09:26:08.488Z,19.02
2018-05-16T09:27:08.477Z,19.08
2018-05-16T09:28:08.401Z,19.21
2018-05-16T09:29:08.360Z,19.09
2018-05-16T09:30:08.313Z,18.99
2018-05-16T09:31:08.301Z,18.78
2018-05-16T09:32:08.274Z,18.62
2018-05-16T09:33:08.186Z,18.47
2018-05-16T09:34:08.140Z,18.40
2018-05-16T09:35:08.097Z,18.38
2018-05-16T09:36:08.053Z,18.31
2018-05-16T09:37:08.045Z,18.23
2018-05-16T09:38:08.010Z,18.13
2018-05-16T09:39:07.925Z,18.10
2018-05-16T09:40:07.879Z,18.31
2018-05-16T09:41:07.844Z,18.40
2018-05-16T09:42:07.821Z,18.40
2018-05-16T09:43:07.792Z,18.50
2018-05-16T09:44:07.706Z,18.43
2018-05-16T09:45:07.671Z,18.66
2018-05-16T09:46:07.622Z,18.56
2018-05-16T09:47:07.581Z,18.56
2018-05-16T09:48:07.589Z,18.52
2018-05-16T09:49:07.493Z,18.53
2018-05-16T09:50:07.444Z,18.41
2018-05-16T09:51:07.404Z,18.23
2018-05-16T09:52:07.360Z,18.26
2018-05-16T09:53:07.347Z,18.18
2018-05-16T09:54:07.286Z,18.18
2018-05-16T09:55:07.231Z,18.25
2018-05-16T09:56:07.223Z,18.11
2018-05-16T09:57:07.143Z,18.11
2018-05-16T09:58:07.110Z,18.11
2018-05-16T09:59:07.098Z,18.05
2018-05-16T10:00:07.017Z,17.98
2018-05-16T10:01:07.030Z,17.86
2018-05-16T10:02:06.934Z,17.78
2018-05-16T10:03:06.881Z,17.63
2018-05-16T10:04:06.845Z,17.63
2018-05-16T10:05:06.801Z,17.56
2018-05-16T10:06:06.784Z,17.48
2018-05-16T10:07:06.716Z,17.49
2018-05-16T10:08:06.665Z,17.52
2018-05-16T10:09:06.625Z,17.51
2018-05-16T10:10:06.578Z,17.46
2018-05-16T10:11:06.575Z,17.59
2018-05-16T10:12:06.531Z,17.60
2018-05-16T10:13:06.449Z,17.54
2018-05-16T10:14:06.402Z,17.51
2018-05-16T10:15:06.412Z,17.54
2018-05-16T10:16:06.318Z,17.48
2018-05-16T10:17:06.335Z,17.48
2018-05-16T10:18:06.229Z,17.45
2018-05-16T10:19:06.183Z,17.46
2018-05-16T10:20:06.207Z,17.42
2018-05-16T10:21:06.127Z,17.45
2018-05-16T10:22:06.083Z,17.48
2018-05-16T10:23:06.009Z,17.41
2018-05-16T10:24:05.964Z,17.46
2018-05-16T10:25:05.923Z,17.42
2018-05-16T10:26:05.915Z,17.45
2018-05-16T10:27:05.830Z,17.51
2018-05-16T10:28:05.785Z,17.56
2018-05-16T10:29:05.745Z,18.00
2018-05-16T10:30:05.699Z,18.37
2018-05-16T10:31:05.689Z,18.62
2018-05-16T10:32:05.643Z,18.96
2018-05-16T10:33:05.571Z,19.30
2018-05-16T10:34:05.530Z,19.45
2018-05-16T10:35:05.483Z,19.73
2018-05-16T10:36:05.445Z,19.88
2018-05-16T10:37:05.438Z,20.13
2018-05-16T10:38:05.356Z,20.09
2018-05-16T10:39:05.311Z,20.06
2018-05-16T10:40:05.264Z,20.06
2018-05-16T10:41:05.231Z,19.86
2018-05-16T10:42:05.212Z,19.74
2018-05-16T10:43:05.136Z,19.58
2018-05-16T10:44:05.129Z,19.44
2018-05-16T10:45:05.056Z,19.34
2018-05-16T10:46:05.008Z,19.29
2018-05-16T10:47:04.993Z,19.08
2018-05-16T10:48:04.919Z,18.86
2018-05-16T10:49:04.912Z,18.83
2018-05-16T10:50:04.835Z,18.73
2018-05-16T10:51:04.795Z,18.73
2018-05-16T10:52:04.759Z,18.58
2018-05-16T10:53:04.743Z,18.44
2018-05-16T10:54:04.660Z,18.53
2018-05-16T10:55:04.620Z,18.40
2018-05-16T10:56:04.575Z,18.45
2018-05-16T10:57:04.532Z,18.38
2018-05-16T10:58:04.532Z,18.28
2018-05-16T10:59:04.443Z,18.41
2018-05-16T11:00:04.449Z,18.47
2018-05-16T11:01:04.360Z,18.59
2018-05-16T11:02:04.317Z,18.77
2018-05-16T11:03:04.273Z,18.86
2018-05-16T11:04:04.237Z,19.15
2018-05-16T11:05:04.239Z,19.29
2018-05-16T11:06:04.183Z,19.58
2018-05-16T11:07:04.104Z,19.74
2018-05-16T11:08:04.061Z,20.13
2018-05-16T11:09:04.014Z,20.44
2018-05-16T11:10:03.971Z,20.59
2018-05-16T11:11:04.296Z,20.59
2018-05-16T11:12:03.919Z,20.75
2018-05-16T11:13:03.844Z,20.90
2018-05-16T11:14:03.800Z,21.09
2018-05-16T11:15:03.759Z,21.30
2018-05-16T11:16:03.729Z,21.42
2018-05-16T11:17:03.704Z,21.55
2018-05-16T11:18:03.641Z,21.72
2018-05-16T11:19:03.593Z,21.73
2018-05-16T11:20:03.557Z,22.00
2018-05-16T11:21:03.506Z,21.77
2018-05-16T11:22:03.495Z,21.51
2018-05-16T11:23:03.427Z,21.40
2018-05-16T11:24:03.412Z,21.36
2018-05-16T11:25:03.343Z,21.30
2018-05-16T11:26:03.315Z,21.17
2018-05-16T11:27:03.295Z,21.14
2018-05-16T11:28:03.218Z,20.96
2018-05-16T11:29:03.171Z,20.77
2018-05-16T11:30:03.135Z,20.60
2018-05-16T11:31:03.114Z,20.47
2018-05-16T11:32:03.082Z,20.26
2018-05-16T11:33:03.016Z,20.13
2018-05-16T11:34:02.961Z,20.09
2018-05-16T11:35:02.935Z,19.94
2018-05-16T11:36:02.913Z,19.92
2018-05-16T11:37:02.844Z,19.99
2018-05-16T11:38:02.828Z,20.24
2018-05-16T11:39:02.754Z,20.36
2018-05-16T11:40:02.713Z,20.34
2018-05-16T11:41:02.704Z,20.39
2018-05-16T11:42:02.629Z,20.48
2018-05-16T11:43:02.604Z,20.63
2018-05-16T11:44:02.547Z,20.74
2018-05-16T11:45:02.508Z,20.62
2018-05-16T11:46:02.500Z,20.56
2018-05-16T11:47:02.422Z,20.44
2018-05-16T11:48:02.380Z,20.36
2018-05-16T11:49:02.335Z,20.37
2018-05-16T11:50:02.309Z,20.34
2018-05-16T11:51:02.293Z,20.28
2018-05-16T11:52:02.217Z,20.10
2018-05-16T11:53:02.207Z,20.11
2018-05-16T11:54:02.174Z,20.10
2018-05-16T11:55:02.083Z,20.09
2018-05-16T11:56:02.044Z,20.19
2018-05-16T11:57:02.036Z,20.25
2018-05-16T11:58:02.008Z,20.25
2018-05-16T11:59:01.918Z,20.36
2018-05-16T12:00:01.881Z,20.44
2018-05-16T12:01:01.844Z,20.63
2018-05-16T12:02:01.797Z,20.69
2018-05-16T12:03:01.787Z,20.82
2018-05-16T12:04:01.719Z,20.84
2018-05-16T12:05:01.669Z,20.97
2018-05-16T12:06:01.628Z,21.02
2018-05-16T12:07:01.617Z,20.99
2018-05-16T12:08:01.581Z,20.97
2018-05-16T12:09:01.520Z,20.92
2018-05-16T12:10:01.492Z,20.93
2018-05-16T12:11:01.450Z,20.93
2018-05-16T12:12:01.379Z,20.84
2018-05-16T12:13:01.332Z,20.75
2018-05-16T12:14:01.314Z,20.74
2018-05-16T12:15:01.361Z,20.67
2018-05-16T12:16:01.210Z,20.67
2018-05-16T12:17:01.174Z,20.67
2018-05-16T12:18:01.163Z,20.70
2018-05-16T12:19:01.082Z,20.63
2018-05-16T12:20:01.039Z,20.74
2018-05-16T12:21:01.045Z,20.72
2018-05-16T12:22:00.955Z,20.66
2018-05-16T12:23:00.920Z,20.69
2018-05-16T12:24:00.872Z,20.67
2018-05-16T12:25:00.834Z,20.67
2018-05-16T12:26:00.823Z,20.67
2018-05-16T12:27:00.788Z,20.67
2018-05-16T12:28:00.722Z,20.55
2018-05-16T12:29:00.784Z,20.41
2018-05-16T12:30:00.632Z,20.48
2018-05-16T12:31:00.590Z,20.40
2018-05-16T12:32:00.577Z,20.32
2018-05-16T12:33:00.502Z,20.34
2018-05-16T12:34:00.457Z,20.25
2018-05-16T12:35:00.415Z,20.09
2018-05-16T12:36:00.405Z,20.11
2018-05-16T12:37:00.373Z,20.14
2018-05-16T12:38:00.292Z,20.18
2018-05-16T12:39:00.249Z,20.24
2018-05-16T12:40:00.217Z,20.22
2018-05-16T12:41:00.203Z,20.24
2018-05-16T12:42:00.126Z,20.28
2018-05-16T12:43:00.127Z,20.25
2018-05-16T12:44:00.042Z,20.22
2018-05-16T12:45:00.002Z,20.22
2018-05-16T12:45:59.965Z,20.25
2018-05-16T12:46:59.950Z,20.26
2018-05-16T12:47:59.926Z,20.24
2018-05-16T12:48:59.835Z,20.29
2018-05-16T12:49:59.789Z,20.21
2018-05-16T12:50:59.749Z,20.25
2018-05-16T12:51:59.709Z,20.31